Meteo Giornale » Osservazioni meteo Italia » Capo Mele

ore: 15:55 - Osservazioni Meteo Capo Mele
Lat. 43° 57' N Lon. 8° 10' E Alt. 220 metri s.l.m.

coperto_pioggia Europe/Rome

16 °C

Pioggia Debole

Temp. 24 Ore

16 °C

22 °C

Nord/Nord-Est

25.9 Km/h

Dew point 16 °C

Umidità 100 %

Visibilità  10 Km

Il sole sorge alle ore 07:13

Il sole tramonta alle ore 19:26

Data e Ora Cielo e Fenomeni T °C DP °C Um. % Pres. hPa Vis. km Vento km/h
Oggi h: 15:55 coperto_pioggia Pioggia Debole 16 16 100 1014 10 N/NE 25.9
Oggi h: 14:55 coperto_pioggia Pioggia 16 15 93 1014 10 N 18.5
Oggi h: 13:55 coperto_pioggia Pioggia 16 14 87 1014 10 N 18.5
Oggi h: 12:55 coperto_pioggia Pioggia 17 13 77 1014 10 N 24
Oggi h: 11:55 poco_nuvoloso Poco Nuvoloso 19 12 63 1015 10 N 33.3
Oggi h: 10:55 poco_nuvoloso Poco Nuvoloso 19 12 63 1015 10 N 25.9
Oggi h: 09:55 poco_nuvoloso Poco Nuvoloso 18 12 67 1014 10 N 29.6
Oggi h: 07:55 nuvoloso Nuvoloso 17 11 67 1015 10 N 33.3
Oggi h: 06:55 nuvoloso Nuvoloso 17 12 72 1014 10 N 27.8
Oggi h: 05:55 coperto_pioggia Pioggia Debole 16 11 72 1015 8 N 38.8
Oggi h: 04:55 coperto_pioggia Pioggia Debole 16 14 87 1014 8 N 38.8
Oggi h: 03:55 coperto_pioggia Pioggia 17 15 88 1016 7 N 27.8
Oggi h: 02:55 coperto_pioggia Pioggia 17 14 82 1017 7 N 25.9
Oggi h: 01:55 coperto_pioggia Pioggia Debole 17 14 82 1017 7 N 27.8
Oggi h: 00:55 coperto_pioggia Pioggia Debole 17 12 72 1018 7 N 27.8
Ieri h: 23:55 coperto_pioggia Pioggia Debole 19 12 63 1018 7 N 31.5
Ieri h: 22:55 coperto_pioggia Pioggia Debole 19 11 59 1018 8 N 29.6
Ieri h: 21:55 coperto_pioggia Pioggia Debole 18 11 63 1019 8 N 33.3
Ieri h: 20:55 coperto_pioggia Pioggia Debole 18 11 63 1020 8 N 33.3
Ieri h: 19:55 coperto_pioggia Pioggia Debole 20 12 59 1019 10 N 25.9
Ieri h: 18:55 nuvoloso Nuvoloso 20 10 52 1019 10 N 22.2
Ieri h: 17:55 sereno Sereno 22 12 53 1021 10 N 24
Ieri h: 16:55 sereno Sereno 22 13 56 1019 10 NE 27.8